Terminal Aerodrome Forecast
Issued by NWS Wilmington, OH

Current Version | Previous Version | Text Only | Print | Product List | Glossary On
Versions: 1 2 3 4 5 6 7 8 9 10 11 12 13 14 15 16 17 18 19 20 21 22 23 24 25 26
000 FTUS41 KILN 261100 TAFCVG TAF KCVG 261126Z 2612/2718 19010KT P6SM SCT025 BKN120 FM261600 21014G22KT P6SM BKN035 FM261800 21014G24KT P6SM VCTS BKN040CB TEMPO 2621/2624 3SM TSRA BR OVC022CB FM270100 20010KT P6SM VCSH BKN040 FM270600 20010KT P6SM BKN012 FM271500 22012KT P6SM BKN022=

USA.gov is the U.S. government's official web portal to all federal, state and local government web resources and services.